createdAt,value
2023-02-18T00:00:20.914Z,12.50
2023-02-18T00:02:47.314Z,7.80
2023-02-18T00:05:14.664Z,5.35
2023-02-18T00:07:41.511Z,3.00
2023-02-18T00:10:11.593Z,1.90
2023-02-18T00:12:38.585Z,2.20
2023-02-18T00:15:05.303Z,2.58
2023-02-18T00:17:31.602Z,1.30
2023-02-18T00:19:58.133Z,2.70
2023-02-18T00:22:25.202Z,1.80
2023-02-18T00:24:51.687Z,1.30
2023-02-18T00:27:18.258Z,1.83
2023-02-18T00:29:44.596Z,1.13
2023-02-18T00:32:11.229Z,1.10
2023-02-18T00:34:37.644Z,1.13
2023-02-18T00:37:04.704Z,1.00
2023-02-18T00:39:31.845Z,0.80
2023-02-18T00:41:58.273Z,1.25
2023-02-18T00:44:25.728Z,0.77
2023-02-18T00:46:53.217Z,1.05
2023-02-18T00:49:19.527Z,1.30
2023-02-18T00:51:45.981Z,0.77
2023-02-18T00:54:12.456Z,2.25
2023-02-18T00:56:38.756Z,2.15
2023-02-18T00:59:05.079Z,1.20
2023-02-18T01:01:31.503Z,0.93
2023-02-18T01:03:57.901Z,1.00
2023-02-18T01:06:24.219Z,1.67
2023-02-18T01:08:50.696Z,1.17
2023-02-18T01:11:17.199Z,3.20
2023-02-18T01:13:43.546Z,1.33
2023-02-18T01:16:10.897Z,1.50
2023-02-18T01:18:38.845Z,1.75
2023-02-18T01:21:08.359Z,2.10
2023-02-18T01:23:38.278Z,1.75
2023-02-18T01:26:05.742Z,2.90
2023-02-18T01:28:32.338Z,5.35
2023-02-18T01:31:04.401Z,2.00
2023-02-18T01:33:31.558Z,0.98
2023-02-18T01:36:00.759Z,1.33
2023-02-18T01:38:27.079Z,4.15
2023-02-18T01:40:54.108Z,1.50
2023-02-18T01:43:22.347Z,2.55
2023-02-18T01:45:58.548Z,1.20
2023-02-18T01:48:39.800Z,1.45
2023-02-18T01:51:32.664Z,1.58
2023-02-18T01:54:04.909Z,3.88
2023-02-18T01:56:40.097Z,1.42
2023-02-18T01:59:12.127Z,2.30
2023-02-18T02:01:41.746Z,1.00
2023-02-18T02:04:08.219Z,1.83
2023-02-18T02:06:34.601Z,1.55
2023-02-18T02:09:03.773Z,1.25
2023-02-18T02:11:57.790Z,1.00
2023-02-18T02:14:45.690Z,3.67
2023-02-18T02:17:44.403Z,1.88
2023-02-18T02:20:44.423Z,2.63
2023-02-18T02:23:41.950Z,1.80
2023-02-18T02:26:45.849Z,1.30
2023-02-18T02:29:45.631Z,1.27
2023-02-18T02:32:54.239Z,2.08
2023-02-18T02:35:26.307Z,2.33
2023-02-18T02:38:01.751Z,1.08
2023-02-18T02:40:54.747Z,1.92
2023-02-18T02:43:34.752Z,0.82
2023-02-18T02:46:19.448Z,2.65
2023-02-18T02:48:59.610Z,2.92
2023-02-18T02:51:42.047Z,2.20
2023-02-18T02:54:20.917Z,1.50
2023-02-18T02:56:48.102Z,1.73
2023-02-18T02:59:27.877Z,0.70
2023-02-18T03:02:16.920Z,1.27
2023-02-18T03:04:49.069Z,2.72
2023-02-18T03:07:52.762Z,0.55
2023-02-18T03:10:39.405Z,0.45
2023-02-18T03:13:50.192Z,1.98
2023-02-18T03:16:26.034Z,0.88
2023-02-18T03:19:05.093Z,0.57
2023-02-18T03:21:36.692Z,1.80
2023-02-18T03:24:08.449Z,0.60
2023-02-18T03:26:39.954Z,0.80
2023-02-18T03:29:08.634Z,0.43
2023-02-18T03:31:38.848Z,0.77
2023-02-18T03:34:12.080Z,1.80
2023-02-18T03:36:39.890Z,1.08
2023-02-18T03:39:14.924Z,0.60
2023-02-18T03:41:41.808Z,0.70
2023-02-18T03:44:10.437Z,0.95
2023-02-18T03:46:40.252Z,1.17
2023-02-18T03:49:06.840Z,1.40
2023-02-18T03:51:33.369Z,1.67
2023-02-18T03:53:59.729Z,2.13
2023-02-18T03:56:26.170Z,0.90
2023-02-18T03:58:52.551Z,0.80
2023-02-18T04:01:18.933Z,2.03
2023-02-18T04:03:45.294Z,1.80
2023-02-18T04:06:11.709Z,0.95
2023-02-18T04:08:38.049Z,1.42
2023-02-18T04:11:05.356Z,2.75
2023-02-18T04:13:32.230Z,1.85
2023-02-18T04:15:58.554Z,1.20
2023-02-18T04:18:24.899Z,1.13
2023-02-18T04:20:51.629Z,1.23
2023-02-18T04:23:17.935Z,1.63
2023-02-18T04:25:44.297Z,1.30
2023-02-18T04:28:13.247Z,1.45
2023-02-18T04:30:39.991Z,2.65
2023-02-18T04:33:06.440Z,2.08
2023-02-18T04:35:32.728Z,3.08
2023-02-18T04:37:59.053Z,2.38
2023-02-18T04:40:26.588Z,1.90
2023-02-18T04:42:52.885Z,1.25
2023-02-18T04:45:19.197Z,2.45
2023-02-18T04:47:45.574Z,1.77
2023-02-18T04:50:11.967Z,0.80
2023-02-18T04:52:38.341Z,1.13
2023-02-18T04:55:04.956Z,2.15
2023-02-18T04:57:31.260Z,2.53
2023-02-18T04:59:57.601Z,1.17
2023-02-18T05:02:23.993Z,1.35
2023-02-18T05:04:50.352Z,1.45
2023-02-18T05:07:16.832Z,0.85
2023-02-18T05:09:43.141Z,1.77
2023-02-18T05:12:09.449Z,0.90
2023-02-18T05:14:35.758Z,1.15
2023-02-18T05:17:02.104Z,2.40
2023-02-18T05:19:28.651Z,1.60
2023-02-18T05:21:54.967Z,0.82
2023-02-18T05:24:21.267Z,1.25
2023-02-18T05:26:47.608Z,1.63
2023-02-18T05:29:13.907Z,0.63
2023-02-18T05:31:40.464Z,0.93
2023-02-18T05:34:06.906Z,1.02
2023-02-18T05:36:33.260Z,0.68
2023-02-18T05:38:59.595Z,0.80
2023-02-18T05:41:25.927Z,0.93
2023-02-18T05:44:10.959Z,2.15
2023-02-18T05:46:37.447Z,2.65
2023-02-18T05:49:03.841Z,1.05
2023-02-18T05:51:30.202Z,0.85
2023-02-18T05:53:56.637Z,1.23
2023-02-18T05:56:23.038Z,1.27
2023-02-18T05:58:49.413Z,1.60
2023-02-18T06:01:15.939Z,2.35
2023-02-18T06:03:42.261Z,2.10
2023-02-18T06:06:08.970Z,2.05
2023-02-18T06:08:35.550Z,2.55
2023-02-18T06:11:02.165Z,2.58
2023-02-18T06:13:28.566Z,2.28
2023-02-18T06:15:55.064Z,2.75
2023-02-18T06:18:22.002Z,1.80
2023-02-18T06:20:49.331Z,2.00
2023-02-18T06:23:16.146Z,1.65
2023-02-18T06:25:42.821Z,1.90
2023-02-18T06:28:09.388Z,1.77
2023-02-18T06:30:35.818Z,2.35
2023-02-18T06:33:04.460Z,2.25
2023-02-18T06:35:30.891Z,1.70
2023-02-18T06:37:57.179Z,0.85
2023-02-18T06:40:23.478Z,1.25
2023-02-18T06:42:49.798Z,0.95
2023-02-18T06:45:16.158Z,2.22
2023-02-18T06:47:42.620Z,0.85
2023-02-18T06:50:09.261Z,2.08
2023-02-18T06:52:37.859Z,0.70
2023-02-18T06:55:09.296Z,1.55
2023-02-18T06:57:35.760Z,0.73
2023-02-18T07:00:02.070Z,0.55
2023-02-18T07:02:28.434Z,2.08
2023-02-18T07:04:54.908Z,1.80
2023-02-18T07:07:21.317Z,1.20
2023-02-18T07:09:47.693Z,1.27
2023-02-18T07:12:14.048Z,0.63
2023-02-18T07:14:40.412Z,1.60
2023-02-18T07:17:06.710Z,1.75
2023-02-18T07:19:32.997Z,1.35
2023-02-18T07:22:00.189Z,1.30
2023-02-18T07:24:26.507Z,2.25
2023-02-18T07:26:52.872Z,3.13
2023-02-18T07:29:19.189Z,1.98
2023-02-18T07:31:45.590Z,0.75
2023-02-18T07:34:11.948Z,3.90
2023-02-18T07:36:38.396Z,1.52
2023-02-18T07:39:04.952Z,0.93
2023-02-18T07:41:31.418Z,0.88
2023-02-18T07:43:57.732Z,2.50
2023-02-18T07:46:24.152Z,1.52
2023-02-18T07:48:50.452Z,0.80
2023-02-18T07:51:16.832Z,1.10
2023-02-18T07:53:43.156Z,2.33
2023-02-18T07:56:09.932Z,4.95
2023-02-18T07:58:38.404Z,6.97
2023-02-18T08:01:14.469Z,11.75
2023-02-18T08:03:41.555Z,7.07
2023-02-18T08:06:08.697Z,12.00
2023-02-18T08:08:37.121Z,17.58
2023-02-18T08:11:13.439Z,15.57
2023-02-18T08:13:46.965Z,11.10
2023-02-18T08:16:13.721Z,12.63
2023-02-18T08:18:40.044Z,23.55
2023-02-18T08:21:06.433Z,12.90
2023-02-18T08:23:32.937Z,23.35
2023-02-18T08:25:59.365Z,19.35
2023-02-18T08:28:26.696Z,22.67
2023-02-18T08:30:54.867Z,23.42
2023-02-18T08:33:22.494Z,21.70
2023-02-18T08:35:50.252Z,17.65
2023-02-18T08:38:16.916Z,12.23
2023-02-18T08:40:43.587Z,24.13
2023-02-18T08:43:10.381Z,16.13
2023-02-18T08:45:40.727Z,7.38
2023-02-18T08:48:18.912Z,9.93
2023-02-18T08:50:47.277Z,3.20
2023-02-18T08:53:13.631Z,3.65
2023-02-18T08:55:41.422Z,2.72
2023-02-18T08:58:08.137Z,2.58
2023-02-18T09:00:35.418Z,2.47
2023-02-18T09:03:01.787Z,4.93
2023-02-18T09:05:29.444Z,3.65
2023-02-18T09:07:55.943Z,2.95
2023-02-18T09:10:22.581Z,2.17
2023-02-18T09:12:48.987Z,1.20
2023-02-18T09:15:15.308Z,0.95
2023-02-18T09:17:41.645Z,1.05
2023-02-18T09:20:08.588Z,1.83
2023-02-18T09:22:34.984Z,1.23
2023-02-18T09:25:01.463Z,3.03
2023-02-18T09:27:27.857Z,2.67
2023-02-18T09:29:54.221Z,0.60
2023-02-18T09:32:33.564Z,0.47
2023-02-18T09:35:00.339Z,2.63
2023-02-18T09:37:28.750Z,0.70
2023-02-18T09:39:55.177Z,1.65
2023-02-18T09:42:28.017Z,0.80
2023-02-18T09:44:59.362Z,0.88
2023-02-18T09:47:34.888Z,1.63
2023-02-18T09:50:11.357Z,1.35
2023-02-18T09:52:39.161Z,3.00
2023-02-18T09:55:27.318Z,0.85
2023-02-18T09:58:15.145Z,1.38
2023-02-18T10:00:44.507Z,1.10
2023-02-18T10:03:17.941Z,2.60
2023-02-18T10:06:05.410Z,0.82
2023-02-18T10:08:50.516Z,0.80
2023-02-18T10:11:41.871Z,1.23
2023-02-18T10:16:38.840Z,1.77
2023-02-18T10:19:19.944Z,1.25
2023-02-18T10:21:47.962Z,1.95
2023-02-18T10:24:32.134Z,0.73
2023-02-18T10:26:59.272Z,0.90
2023-02-18T10:29:26.661Z,1.52
2023-02-18T10:31:59.172Z,1.60
2023-02-18T10:34:41.469Z,0.88
2023-02-18T10:37:32.743Z,1.50
2023-02-18T10:40:25.576Z,1.42
2023-02-18T10:43:03.663Z,7.70
2023-02-18T10:45:56.221Z,48.10
2023-02-18T10:48:44.066Z,33.80
2023-02-18T10:51:23.477Z,8.20
2023-02-18T10:53:52.880Z,10.57
2023-02-18T10:56:40.620Z,13.75
2023-02-18T10:59:25.710Z,14.55
2023-02-18T11:01:59.237Z,16.35
2023-02-18T11:04:35.569Z,17.33
2023-02-18T11:07:12.286Z,11.98
2023-02-18T11:10:19.446Z,6.40
2023-02-18T11:12:49.967Z,8.40
2023-02-18T11:15:23.480Z,11.20
2023-02-18T11:17:52.515Z,6.63
2023-02-18T11:20:28.271Z,7.00
2023-02-18T11:23:13.230Z,7.93
2023-02-18T11:25:41.957Z,7.93
2023-02-18T11:28:17.380Z,7.70
2023-02-18T11:30:46.918Z,6.82
2023-02-18T11:33:20.803Z,15.57
2023-02-18T11:35:58.461Z,11.45
2023-02-18T11:38:46.283Z,19.10
2023-02-18T11:41:19.989Z,12.57
2023-02-18T11:43:49.119Z,23.30
2023-02-18T11:46:27.076Z,11.57
2023-02-18T11:48:54.231Z,9.38
2023-02-18T11:51:27.719Z,23.17
2023-02-18T11:54:05.757Z,7.55
2023-02-18T11:56:35.257Z,3.53
2023-02-18T11:59:03.892Z,4.60
2023-02-18T12:01:51.016Z,3.42
2023-02-18T12:04:19.816Z,3.42
2023-02-18T12:06:53.301Z,5.22
2023-02-18T12:09:26.340Z,6.07
2023-02-18T12:11:58.587Z,6.07
2023-02-18T12:14:26.469Z,5.20
2023-02-18T12:17:26.444Z,2.58
2023-02-18T12:20:03.146Z,4.20
2023-02-18T12:22:38.162Z,2.17
2023-02-18T12:25:37.370Z,2.33
2023-02-18T12:28:24.986Z,2.42
2023-02-18T12:31:17.530Z,2.20
2023-02-18T12:33:59.057Z,7.95
2023-02-18T12:36:50.497Z,3.55
2023-02-18T12:42:08.737Z,1.73
2023-02-18T12:45:08.903Z,3.10
2023-02-18T12:47:47.755Z,5.78
2023-02-18T12:50:34.029Z,6.32
2023-02-18T12:53:12.934Z,3.50
2023-02-18T12:56:23.434Z,3.55
2023-02-18T12:59:27.112Z,1.55
2023-02-18T13:02:01.690Z,3.83
2023-02-18T13:04:48.261Z,5.95
2023-02-18T13:07:35.266Z,3.08
2023-02-18T13:10:28.029Z,4.28
2023-02-18T13:13:08.577Z,2.72
2023-02-18T13:15:55.612Z,2.28
2023-02-18T13:18:28.687Z,2.65
2023-02-18T13:20:59.107Z,2.35
2023-02-18T13:23:34.143Z,3.67
2023-02-18T13:26:04.866Z,4.10
2023-02-18T13:28:40.619Z,2.92
2023-02-18T13:31:32.289Z,4.45
2023-02-18T13:34:03.704Z,5.30
2023-02-18T13:36:36.988Z,5.15
2023-02-18T13:39:05.826Z,2.42
2023-02-18T13:41:38.906Z,5.20
2023-02-18T13:44:20.589Z,4.97
2023-02-18T13:46:56.420Z,7.50
2023-02-18T13:49:41.172Z,3.78
2023-02-18T13:52:20.026Z,3.13
2023-02-18T13:54:47.752Z,4.40
2023-02-18T13:57:19.208Z,3.28
2023-02-18T13:59:49.539Z,3.20
2023-02-18T14:02:32.497Z,2.00
2023-02-18T14:05:11.232Z,3.53
2023-02-18T14:07:46.616Z,1.92
2023-02-18T14:10:12.884Z,1.50
2023-02-18T14:13:03.993Z,2.22
2023-02-18T14:15:30.293Z,2.20
2023-02-18T14:18:02.604Z,2.47
2023-02-18T14:20:37.948Z,4.22
2023-02-18T14:23:22.715Z,6.15
2023-02-18T14:25:57.493Z,10.80
2023-02-18T14:28:47.106Z,3.38
2023-02-18T14:31:13.908Z,5.35
2023-02-18T14:33:47.517Z,4.78
2023-02-18T14:36:55.550Z,6.90
2023-02-18T14:39:43.501Z,3.95
2023-02-18T14:42:42.476Z,4.00
2023-02-18T14:45:31.403Z,2.17
2023-02-18T14:48:38.755Z,2.22
2023-02-18T14:51:05.642Z,3.08
2023-02-18T14:53:39.860Z,2.80
2023-02-18T14:56:11.259Z,2.90
2023-02-18T14:58:41.077Z,1.52
2023-02-18T15:01:18.445Z,1.77
2023-02-18T15:03:44.786Z,1.50
2023-02-18T15:06:32.080Z,2.33
2023-02-18T15:08:59.950Z,2.65
2023-02-18T15:11:36.868Z,2.05
2023-02-18T15:14:10.784Z,3.80
2023-02-18T15:16:38.306Z,3.78
2023-02-18T15:19:07.817Z,5.57
2023-02-18T15:21:41.971Z,6.78
2023-02-18T15:24:31.443Z,7.65
2023-02-18T15:27:04.010Z,19.70
2023-02-18T15:29:35.018Z,23.17
2023-02-18T15:32:14.987Z,17.48
2023-02-18T15:34:43.976Z,17.02
2023-02-18T15:37:14.891Z,20.17
2023-02-18T15:39:42.582Z,29.40
2023-02-18T15:42:24.546Z,22.60
2023-02-18T15:44:55.916Z,14.55
2023-02-18T15:47:23.517Z,15.18
2023-02-18T15:49:56.764Z,18.40
2023-02-18T15:52:26.400Z,12.73
2023-02-18T15:54:53.308Z,9.45
2023-02-18T15:57:23.710Z,14.10
2023-02-18T16:00:34.774Z,12.73
2023-02-18T16:03:20.092Z,11.85
2023-02-18T16:05:47.274Z,15.32
2023-02-18T16:08:16.716Z,11.88
2023-02-18T16:10:53.538Z,12.82
2023-02-18T16:13:20.190Z,14.52
2023-02-18T16:15:49.368Z,12.98
2023-02-18T16:18:42.210Z,15.80
2023-02-18T16:21:17.402Z,16.02
2023-02-18T16:23:54.264Z,9.93
2023-02-18T16:26:28.217Z,11.73
2023-02-18T16:28:55.392Z,7.85
2023-02-18T16:31:21.961Z,8.93
2023-02-18T16:33:49.479Z,9.10
2023-02-18T16:36:16.832Z,13.88
2023-02-18T16:38:45.077Z,17.10
2023-02-18T16:41:14.406Z,20.20
2023-02-18T16:43:41.651Z,16.80
2023-02-18T16:46:14.034Z,29.48
2023-02-18T16:48:43.013Z,32.35
2023-02-18T16:51:30.690Z,13.50
2023-02-18T16:53:57.213Z,13.05
2023-02-18T16:56:32.280Z,8.18
2023-02-18T16:58:59.279Z,7.80
2023-02-18T17:01:28.898Z,6.47
2023-02-18T17:03:56.509Z,5.78
2023-02-18T17:06:23.007Z,3.95
2023-02-18T17:08:49.950Z,7.07
2023-02-18T17:11:20.682Z,5.20
2023-02-18T17:13:48.807Z,4.63
2023-02-18T17:16:16.206Z,2.60
2023-02-18T17:18:43.712Z,4.03
2023-02-18T17:21:14.946Z,3.15
2023-02-18T17:26:34.948Z,2.60
2023-02-18T17:29:01.514Z,2.70
2023-02-18T17:31:30.898Z,2.30
2023-02-18T17:34:01.083Z,3.25
2023-02-18T17:36:27.620Z,1.42
2023-02-18T17:38:54.038Z,2.47
2023-02-18T17:41:20.508Z,1.70
2023-02-18T17:43:46.842Z,1.75
2023-02-18T17:46:15.950Z,2.08
2023-02-18T17:48:43.136Z,2.83
2023-02-18T17:51:39.190Z,2.08
2023-02-18T17:54:18.643Z,2.35
2023-02-18T17:56:45.388Z,1.73
2023-02-18T17:59:11.755Z,3.20
2023-02-18T18:01:38.766Z,3.13
2023-02-18T18:04:12.816Z,2.95
2023-02-18T18:06:39.248Z,3.45
2023-02-18T18:09:05.578Z,3.25
2023-02-18T18:11:32.742Z,2.67
2023-02-18T18:13:59.589Z,9.85
2023-02-18T18:16:26.604Z,22.63
2023-02-18T18:18:52.993Z,53.85
2023-02-18T18:21:22.797Z,19.10
2023-02-18T18:23:49.950Z,16.05
2023-02-18T18:26:16.317Z,13.98
2023-02-18T18:28:42.828Z,11.82
2023-02-18T18:31:14.843Z,17.73
2023-02-18T18:33:41.726Z,16.73
2023-02-18T18:36:08.439Z,12.90
2023-02-18T18:38:35.074Z,15.65
2023-02-18T18:41:01.416Z,25.88
2023-02-18T18:43:33.271Z,16.13
2023-02-18T18:46:00.007Z,12.07
2023-02-18T18:48:26.761Z,13.75
2023-02-18T18:50:53.594Z,12.20
2023-02-18T18:53:24.481Z,20.05
2023-02-18T18:55:56.118Z,14.73
2023-02-18T18:58:24.432Z,14.65
2023-02-18T19:00:57.064Z,19.13
2023-02-18T19:03:24.850Z,13.50
2023-02-18T19:05:52.141Z,16.80
2023-02-18T19:08:21.859Z,24.27
2023-02-18T19:10:51.365Z,33.40
2023-02-18T19:13:21.453Z,19.55
2023-02-18T19:15:48.842Z,27.83
2023-02-18T19:18:17.375Z,16.60
2023-02-18T19:20:45.239Z,25.27
2023-02-18T19:23:11.810Z,22.13
2023-02-18T19:25:39.259Z,16.23
2023-02-18T19:28:05.978Z,15.43
2023-02-18T19:30:35.073Z,15.32
2023-02-18T19:33:03.395Z,14.75
2023-02-18T19:35:30.671Z,10.65
2023-02-18T19:37:57.620Z,6.45
2023-02-18T19:40:26.628Z,4.45
2023-02-18T19:42:53.647Z,3.22
2023-02-18T19:45:20.841Z,4.03
2023-02-18T19:47:47.564Z,4.22
2023-02-18T19:50:15.671Z,5.65
2023-02-18T19:52:42.148Z,5.82
2023-02-18T19:55:09.834Z,2.97
2023-02-18T19:57:36.610Z,3.95
2023-02-18T20:00:08.277Z,4.75
2023-02-18T20:02:39.453Z,3.65
2023-02-18T20:05:07.459Z,3.05
2023-02-18T20:07:36.059Z,2.60
2023-02-18T20:10:03.971Z,2.78
2023-02-18T20:12:30.406Z,4.22
2023-02-18T20:14:56.765Z,3.25
2023-02-18T20:17:23.134Z,3.25
2023-02-18T20:19:49.448Z,4.35
2023-02-18T20:22:15.845Z,3.10
2023-02-18T20:24:42.362Z,2.65
2023-02-18T20:27:09.939Z,3.08
2023-02-18T20:29:36.836Z,2.55
2023-02-18T20:32:05.211Z,2.63
2023-02-18T20:34:32.859Z,2.83
2023-02-18T20:37:00.092Z,3.85
2023-02-18T20:39:27.178Z,2.58
2023-02-18T20:41:53.709Z,5.80
2023-02-18T20:44:21.142Z,3.03
2023-02-18T20:46:50.740Z,50.50
2023-02-18T20:49:18.919Z,18.75
2023-02-18T20:51:45.800Z,12.98
2023-02-18T20:54:15.663Z,7.43
2023-02-18T20:56:43.681Z,3.47
2023-02-18T20:59:14.224Z,3.70
2023-02-18T21:01:41.788Z,3.83
2023-02-18T21:04:10.629Z,3.90
2023-02-18T21:06:36.957Z,2.97
2023-02-18T21:09:03.826Z,3.53
2023-02-18T21:11:30.133Z,3.92
2023-02-18T21:13:57.677Z,4.10
2023-02-18T21:16:26.583Z,4.47
2023-02-18T21:18:53.304Z,4.35
2023-02-18T21:21:20.233Z,3.58
2023-02-18T21:23:46.779Z,3.75
2023-02-18T21:26:18.945Z,3.83
2023-02-18T21:28:50.142Z,4.10
2023-02-18T21:33:42.950Z,44.17
2023-02-18T21:36:09.411Z,38.50
2023-02-18T21:38:35.696Z,25.63
2023-02-18T21:41:04.431Z,31.58
2023-02-18T21:43:30.739Z,16.70
2023-02-18T21:46:06.160Z,35.75
2023-02-18T21:48:51.256Z,34.20
2023-02-18T21:51:37.523Z,36.42
2023-02-18T21:54:03.886Z,61.83
2023-02-18T21:56:30.194Z,42.28
2023-02-18T21:58:56.506Z,52.22
2023-02-18T22:01:22.949Z,40.88
2023-02-18T22:03:49.280Z,41.33
2023-02-18T22:06:15.587Z,44.22
2023-02-18T22:08:41.959Z,63.40
2023-02-18T22:11:08.643Z,37.55
2023-02-18T22:13:35.255Z,46.95
2023-02-18T22:16:01.596Z,27.23
2023-02-18T22:18:31.482Z,29.95
2023-02-18T22:20:58.440Z,38.00
2023-02-18T22:23:25.093Z,33.40
2023-02-18T22:25:52.202Z,42.65
2023-02-18T22:28:19.052Z,35.85
2023-02-18T22:30:45.365Z,54.08
2023-02-18T22:33:11.695Z,60.72
2023-02-18T22:35:37.993Z,49.42
2023-02-18T22:38:04.298Z,46.10
2023-02-18T22:40:30.637Z,27.85
2023-02-18T22:42:56.929Z,18.17
2023-02-18T22:45:23.293Z,13.20
2023-02-18T22:47:49.597Z,12.57
2023-02-18T22:50:16.733Z,7.93
2023-02-18T22:52:43.117Z,8.52
2023-02-18T22:55:09.396Z,5.35
2023-02-18T22:57:35.771Z,7.00
2023-02-18T23:00:02.068Z,5.47
2023-02-18T23:02:28.392Z,5.60
2023-02-18T23:04:54.674Z,7.60
2023-02-18T23:07:24.301Z,5.18
2023-02-18T23:09:50.592Z,4.45
2023-02-18T23:12:17.819Z,5.53
2023-02-18T23:14:44.150Z,5.20
2023-02-18T23:17:13.403Z,5.18
2023-02-18T23:19:42.349Z,6.10
2023-02-18T23:22:10.928Z,5.32
2023-02-18T23:24:39.994Z,6.45
2023-02-18T23:27:08.603Z,5.03
2023-02-18T23:29:34.930Z,6.05
2023-02-18T23:32:02.032Z,5.32
2023-02-18T23:34:28.808Z,5.03
2023-02-18T23:36:55.753Z,3.72
2023-02-18T23:39:22.795Z,3.80
2023-02-18T23:41:50.903Z,4.07
2023-02-18T23:44:22.067Z,4.25
2023-02-18T23:49:16.067Z,5.35
2023-02-18T23:51:43.186Z,3.50
2023-02-18T23:54:10.334Z,3.42
2023-02-18T23:56:36.827Z,3.38
2023-02-18T23:59:04.412Z,4.65
